VAM | Vabird-VBD

Virtual Vabird! Aerolínea Virtual de habla hispana, desde 2011




 INFORMACIÓN METAR y TAF
METAR FOR GCLP
ADDS - METARS form results

(1311 UTC 12 April 2021)
Data provider http://aviationweather.gov/metar/data/
 
METAR text: GCLP 121300Z 04017KT 9999 FEW025 23/17 Q1019 NOSIG
Conditions at: GCLP (LAS PALMAS/GANDO, ES) observed 1300 UTC 12 April 2021
Temperature: 23.0°C (73°F)
Dewpoint: 17.0°C (63°F) [RH = 69%]
Pressure (altimeter): 30.09 inches Hg (1019.0 mb)
Winds: from the NE (40 degrees) at 20 MPH (17 knots; 8.7 m/s)
Visibility: 6 or more miles (10+ km)
Ceiling: at least 12,000 feet AGL
Clouds: few clouds at 2500 feet AGL
Weather: no significant weather observed at this time

METAR text: GCLP 121230Z 04019KT 9999 FEW025 23/16 Q1020 NOSIG
Conditions at: GCLP (LAS PALMAS/GANDO, ES) observed 1230 UTC 12 April 2021
Temperature: 23.0°C (73°F)
Dewpoint: 16.0°C (61°F) [RH = 65%]
Pressure (altimeter): 30.12 inches Hg (1020.0 mb)
Winds: from the NE (40 degrees) at 22 MPH (19 knots; 9.8 m/s)
Visibility: 6 or more miles (10+ km)
Ceiling: at least 12,000 feet AGL
Clouds: few clouds at 2500 feet AGL
Weather: no significant weather observed at this time

Forecast for: GCLP (LAS PALMAS/GANDO, ES)
Text: TAF GCLP 120800Z 1209/1309 03014KT 9999 FEW025 TX23/1214Z TN17/1307Z
Forecast period: 0900 UTC 12 April 2021 to 0900 UTC 13 April 2021
Forecast type: FROM: standard forecast or significant change
Winds: from the NNE (30 degrees) at 16 MPH (14 knots; 7.2 m/s)
Visibility: 6 or more miles (10+ km)
Ceiling: at least 12,000 feet AGL
Clouds: few clouds at 2500 feet AGL
Weather: no significant weather forecast for this period

 MAPA DE AEROPUERTO

 INFORMACIÓN DE PISTA